sensor_id;sensor_type;location;lat;lon;timestamp;temperature;humidity
41060;DHT22;26811;53.160;8.202;2023-07-20T00:04:59;15.90;99.90
41060;DHT22;26811;53.160;8.202;2023-07-20T00:10:00;15.70;99.90
41060;DHT22;26811;53.160;8.202;2023-07-20T00:15:00;15.70;99.90
41060;DHT22;26811;53.160;8.202;2023-07-20T00:20:01;15.60;99.90
41060;DHT22;26811;53.160;8.202;2023-07-20T00:25:02;15.50;99.90
41060;DHT22;26811;53.160;8.202;2023-07-20T00:30:04;15.50;99.90
41060;DHT22;26811;53.160;8.202;2023-07-20T00:35:04;15.50;99.90
41060;DHT22;26811;53.160;8.202;2023-07-20T00:40:06;15.40;99.90
41060;DHT22;26811;53.160;8.202;2023-07-20T00:45:07;15.40;99.90
41060;DHT22;26811;53.160;8.202;2023-07-20T00:50:09;15.40;99.90
41060;DHT22;26811;53.160;8.202;2023-07-20T00:55:11;15.40;99.90
41060;DHT22;26811;53.160;8.202;2023-07-20T01:00:12;15.30;99.90
41060;DHT22;26811;53.160;8.202;2023-07-20T01:05:13;15.30;99.90
41060;DHT22;26811;53.160;8.202;2023-07-20T01:10:20;15.30;99.90
41060;DHT22;26811;53.160;8.202;2023-07-20T01:15:23;15.20;99.90
41060;DHT22;26811;53.160;8.202;2023-07-20T01:20:24;15.20;99.90
41060;DHT22;26811;53.160;8.202;2023-07-20T01:30:59;15.10;99.90
41060;DHT22;26811;53.160;8.202;2023-07-20T01:36:03;15.10;99.90
41060;DHT22;26811;53.160;8.202;2023-07-20T01:41:05;15.10;99.90
41060;DHT22;26811;53.160;8.202;2023-07-20T01:46:06;15.10;99.90
41060;DHT22;26811;53.160;8.202;2023-07-20T01:51:07;15.10;99.90
41060;DHT22;26811;53.160;8.202;2023-07-20T01:56:07;15.10;99.90
41060;DHT22;26811;53.160;8.202;2023-07-20T02:01:08;15.10;99.90
41060;DHT22;26811;53.160;8.202;2023-07-20T02:06:08;15.20;99.90
41060;DHT22;26811;53.160;8.202;2023-07-20T02:11:09;15.20;99.90
41060;DHT22;26811;53.160;8.202;2023-07-20T02:16:10;15.10;99.90
41060;DHT22;26811;53.160;8.202;2023-07-20T02:21:11;15.10;99.90
41060;DHT22;26811;53.160;8.202;2023-07-20T02:26:12;15.10;99.90
41060;DHT22;26811;53.160;8.202;2023-07-20T02:31:12;15.10;99.90
41060;DHT22;26811;53.160;8.202;2023-07-20T02:36:13;15.10;99.90
41060;DHT22;26811;53.160;8.202;2023-07-20T02:41:13;15.10;99.90
41060;DHT22;26811;53.160;8.202;2023-07-20T02:46:14;15.10;99.90
41060;DHT22;26811;53.160;8.202;2023-07-20T02:51:14;15.10;99.90
41060;DHT22;26811;53.160;8.202;2023-07-20T02:56:15;15.10;99.90
41060;DHT22;26811;53.160;8.202;2023-07-20T03:01:16;15.10;99.90
41060;DHT22;26811;53.160;8.202;2023-07-20T03:06:16;15.10;99.90
41060;DHT22;26811;53.160;8.202;2023-07-20T03:11:18;15.10;99.90
41060;DHT22;26811;53.160;8.202;2023-07-20T03:16:19;15.10;99.90
41060;DHT22;26811;53.160;8.202;2023-07-20T03:21:20;15.10;99.90
41060;DHT22;26811;53.160;8.202;2023-07-20T03:26:20;15.10;99.90
41060;DHT22;26811;53.160;8.202;2023-07-20T03:31:21;15.10;99.90
41060;DHT22;26811;53.160;8.202;2023-07-20T03:36:21;15.10;99.90
41060;DHT22;26811;53.160;8.202;2023-07-20T03:41:22;15.00;99.90
41060;DHT22;26811;53.160;8.202;2023-07-20T03:46:23;15.00;99.90
41060;DHT22;26811;53.160;8.202;2023-07-20T03:51:23;14.90;99.90
41060;DHT22;26811;53.160;8.202;2023-07-20T03:56:24;14.90;99.90
41060;DHT22;26811;53.160;8.202;2023-07-20T04:01:25;14.90;99.90
41060;DHT22;26811;53.160;8.202;2023-07-20T04:06:25;14.80;99.90
41060;DHT22;26811;53.160;8.202;2023-07-20T04:11:26;14.80;99.90
41060;DHT22;26811;53.160;8.202;2023-07-20T04:16:26;14.70;99.90
41060;DHT22;26811;53.160;8.202;2023-07-20T04:21:27;14.70;99.90
41060;DHT22;26811;53.160;8.202;2023-07-20T04:26:28;14.70;99.90
41060;DHT22;26811;53.160;8.202;2023-07-20T04:31:28;14.60;99.90
41060;DHT22;26811;53.160;8.202;2023-07-20T04:36:29;14.60;99.90
41060;DHT22;26811;53.160;8.202;2023-07-20T04:41:29;14.80;99.90
41060;DHT22;26811;53.160;8.202;2023-07-20T04:46:30;15.10;99.90
41060;DHT22;26811;53.160;8.202;2023-07-20T04:51:31;15.60;99.90
41060;DHT22;26811;53.160;8.202;2023-07-20T04:56:32;15.80;99.90
41060;DHT22;26811;53.160;8.202;2023-07-20T05:01:33;15.90;99.90
41060;DHT22;26811;53.160;8.202;2023-07-20T05:06:34;15.80;99.90
41060;DHT22;26811;53.160;8.202;2023-07-20T05:11:34;15.70;99.90
41060;DHT22;26811;53.160;8.202;2023-07-20T05:16:35;15.70;99.90
41060;DHT22;26811;53.160;8.202;2023-07-20T05:21:35;15.70;99.90
41060;DHT22;26811;53.160;8.202;2023-07-20T05:26:36;15.80;99.90
41060;DHT22;26811;53.160;8.202;2023-07-20T05:31:36;16.00;99.90
41060;DHT22;26811;53.160;8.202;2023-07-20T05:36:37;16.00;99.90
41060;DHT22;26811;53.160;8.202;2023-07-20T05:41:37;16.00;99.90
41060;DHT22;26811;53.160;8.202;2023-07-20T05:46:38;16.10;99.90
41060;DHT22;26811;53.160;8.202;2023-07-20T05:51:38;16.30;99.90
41060;DHT22;26811;53.160;8.202;2023-07-20T05:56:39;16.50;99.90
41060;DHT22;26811;53.160;8.202;2023-07-20T06:01:39;16.70;99.90
41060;DHT22;26811;53.160;8.202;2023-07-20T06:06:40;17.00;99.90
41060;DHT22;26811;53.160;8.202;2023-07-20T06:11:41;17.10;99.90
41060;DHT22;26811;53.160;8.202;2023-07-20T06:16:41;17.10;99.90
41060;DHT22;26811;53.160;8.202;2023-07-20T06:21:42;17.20;99.90
41060;DHT22;26811;53.160;8.202;2023-07-20T06:32:15;17.20;99.90
41060;DHT22;26811;53.160;8.202;2023-07-20T06:37:52;17.10;99.90
41060;DHT22;26811;53.160;8.202;2023-07-20T06:43:44;17.20;99.90
41060;DHT22;26811;53.160;8.202;2023-07-20T06:49:07;17.20;99.90
41060;DHT22;26811;53.160;8.202;2023-07-20T07:06:26;17.70;99.90
41060;DHT22;26811;53.160;8.202;2023-07-20T07:12:28;18.20;99.90
41060;DHT22;26811;53.160;8.202;2023-07-20T07:23:15;19.20;99.90
41060;DHT22;26811;53.160;8.202;2023-07-20T07:34:16;19.80;99.90
41060;DHT22;26811;53.160;8.202;2023-07-20T07:39:24;20.20;99.90
41060;DHT22;26811;53.160;8.202;2023-07-20T07:44:51;20.70;99.90
41060;DHT22;26811;53.160;8.202;2023-07-20T07:50:26;20.70;99.90
41060;DHT22;26811;53.160;8.202;2023-07-20T08:02:05;20.10;99.90
41060;DHT22;26811;53.160;8.202;2023-07-20T08:07:21;20.60;99.90
41060;DHT22;26811;53.160;8.202;2023-07-20T08:12:28;20.80;99.90
41060;DHT22;26811;53.160;8.202;2023-07-20T08:23:31;21.20;99.90
41060;DHT22;26811;53.160;8.202;2023-07-20T08:28:32;20.90;99.90
41060;DHT22;26811;53.160;8.202;2023-07-20T08:33:58;21.00;99.90
41060;DHT22;26811;53.160;8.202;2023-07-20T08:45:20;20.90;99.90
41060;DHT22;26811;53.160;8.202;2023-07-20T08:50:47;21.00;99.90
41060;DHT22;26811;53.160;8.202;2023-07-20T08:56:26;21.10;99.90
41060;DHT22;26811;53.160;8.202;2023-07-20T09:01:57;21.10;99.90
41060;DHT22;26811;53.160;8.202;2023-07-20T09:06:58;21.50;99.90
41060;DHT22;26811;53.160;8.202;2023-07-20T09:12:36;21.90;99.90
41060;DHT22;26811;53.160;8.202;2023-07-20T09:24:05;20.30;99.90
41060;DHT22;26811;53.160;8.202;2023-07-20T09:29:14;19.30;99.90
41060;DHT22;26811;53.160;8.202;2023-07-20T09:40:17;19.90;99.90
41060;DHT22;26811;53.160;8.202;2023-07-20T09:45:53;20.60;99.90
41060;DHT22;26811;53.160;8.202;2023-07-20T09:51:26;20.90;99.90
41060;DHT22;26811;53.160;8.202;2023-07-20T10:08:16;20.30;99.90
41060;DHT22;26811;53.160;8.202;2023-07-20T10:13:29;21.10;99.90
41060;DHT22;26811;53.160;8.202;2023-07-20T10:19:17;21.80;99.90
41060;DHT22;26811;53.160;8.202;2023-07-20T10:24:49;22.20;99.90
41060;DHT22;26811;53.160;8.202;2023-07-20T10:29:57;22.00;99.90
41060;DHT22;26811;53.160;8.202;2023-07-20T10:34:59;21.40;99.90
41060;DHT22;26811;53.160;8.202;2023-07-20T10:40:24;21.70;99.90
41060;DHT22;26811;53.160;8.202;2023-07-20T10:45:41;22.00;99.90
41060;DHT22;26811;53.160;8.202;2023-07-20T10:50:46;22.10;99.90
41060;DHT22;26811;53.160;8.202;2023-07-20T10:56:12;22.20;99.90
41060;DHT22;26811;53.160;8.202;2023-07-20T11:01:18;22.40;99.90
41060;DHT22;26811;53.160;8.202;2023-07-20T11:06:30;22.50;99.90
41060;DHT22;26811;53.160;8.202;2023-07-20T11:11:34;22.80;99.90
41060;DHT22;26811;53.160;8.202;2023-07-20T11:16:48;23.00;99.90
41060;DHT22;26811;53.160;8.202;2023-07-20T11:21:56;23.30;99.90
41060;DHT22;26811;53.160;8.202;2023-07-20T11:27:05;23.00;98.60
41060;DHT22;26811;53.160;8.202;2023-07-20T11:32:24;23.00;98.20
41060;DHT22;26811;53.160;8.202;2023-07-20T11:37:25;22.40;99.90
41060;DHT22;26811;53.160;8.202;2023-07-20T11:42:32;21.90;99.90
41060;DHT22;26811;53.160;8.202;2023-07-20T11:47:44;21.70;99.90
41060;DHT22;26811;53.160;8.202;2023-07-20T11:52:45;21.40;99.90
41060;DHT22;26811;53.160;8.202;2023-07-20T11:58:21;21.00;99.90
41060;DHT22;26811;53.160;8.202;2023-07-20T12:03:22;20.70;99.90
41060;DHT22;26811;53.160;8.202;2023-07-20T12:08:23;20.90;99.90
41060;DHT22;26811;53.160;8.202;2023-07-20T12:13:23;21.50;99.90
41060;DHT22;26811;53.160;8.202;2023-07-20T12:18:34;22.10;99.90
41060;DHT22;26811;53.160;8.202;2023-07-20T12:23:39;22.50;99.90
41060;DHT22;26811;53.160;8.202;2023-07-20T12:34:19;22.70;99.90
41060;DHT22;26811;53.160;8.202;2023-07-20T12:39:20;22.70;99.40
41060;DHT22;26811;53.160;8.202;2023-07-20T12:49:50;22.90;99.70
41060;DHT22;26811;53.160;8.202;2023-07-20T12:54:50;23.00;99.90
41060;DHT22;26811;53.160;8.202;2023-07-20T12:59:51;23.20;99.90
41060;DHT22;26811;53.160;8.202;2023-07-20T13:04:52;23.30;98.70
41060;DHT22;26811;53.160;8.202;2023-07-20T13:09:52;22.90;98.90
41060;DHT22;26811;53.160;8.202;2023-07-20T13:14:54;22.70;99.60
41060;DHT22;26811;53.160;8.202;2023-07-20T13:19:55;22.80;99.90
41060;DHT22;26811;53.160;8.202;2023-07-20T13:24:55;22.70;99.50
41060;DHT22;26811;53.160;8.202;2023-07-20T13:29:57;22.80;99.80
41060;DHT22;26811;53.160;8.202;2023-07-20T13:34:58;22.90;99.90
41060;DHT22;26811;53.160;8.202;2023-07-20T13:39:58;23.00;97.80
41060;DHT22;26811;53.160;8.202;2023-07-20T13:44:59;22.70;97.50
41060;DHT22;26811;53.160;8.202;2023-07-20T13:49:59;22.40;98.50
41060;DHT22;26811;53.160;8.202;2023-07-20T13:55:01;22.10;99.40
41060;DHT22;26811;53.160;8.202;2023-07-20T14:00:05;21.80;99.90
41060;DHT22;26811;53.160;8.202;2023-07-20T14:05:08;21.80;99.90
41060;DHT22;26811;53.160;8.202;2023-07-20T14:10:10;21.80;99.70
41060;DHT22;26811;53.160;8.202;2023-07-20T14:15:10;21.60;99.90
41060;DHT22;26811;53.160;8.202;2023-07-20T14:20:11;21.60;99.90
41060;DHT22;26811;53.160;8.202;2023-07-20T14:25:12;21.90;99.90
41060;DHT22;26811;53.160;8.202;2023-07-20T14:30:13;21.80;99.70
41060;DHT22;26811;53.160;8.202;2023-07-20T14:35:13;21.60;99.80
41060;DHT22;26811;53.160;8.202;2023-07-20T14:40:14;21.40;99.90
41060;DHT22;26811;53.160;8.202;2023-07-20T14:45:15;21.20;99.90
41060;DHT22;26811;53.160;8.202;2023-07-20T14:50:15;21.20;99.90
41060;DHT22;26811;53.160;8.202;2023-07-20T14:55:16;21.00;99.90
41060;DHT22;26811;53.160;8.202;2023-07-20T15:00:17;20.90;99.90
41060;DHT22;26811;53.160;8.202;2023-07-20T15:05:24;20.90;99.90
41060;DHT22;26811;53.160;8.202;2023-07-20T15:10:27;20.80;99.90
41060;DHT22;26811;53.160;8.202;2023-07-20T15:15:27;20.90;99.90
41060;DHT22;26811;53.160;8.202;2023-07-20T15:20:28;20.80;99.90
41060;DHT22;26811;53.160;8.202;2023-07-20T15:25:28;20.70;99.90
41060;DHT22;26811;53.160;8.202;2023-07-20T15:30:37;20.50;99.90
41060;DHT22;26811;53.160;8.202;2023-07-20T15:35:38;20.30;99.90
41060;DHT22;26811;53.160;8.202;2023-07-20T15:40:43;20.10;99.90
41060;DHT22;26811;53.160;8.202;2023-07-20T15:45:47;20.00;99.90
41060;DHT22;26811;53.160;8.202;2023-07-20T15:50:49;19.90;99.90
41060;DHT22;26811;53.160;8.202;2023-07-20T15:55:53;19.80;99.90
41060;DHT22;26811;53.160;8.202;2023-07-20T16:00:56;18.70;99.90
41060;DHT22;26811;53.160;8.202;2023-07-20T16:05:56;17.90;99.90
41060;DHT22;26811;53.160;8.202;2023-07-20T16:10:57;17.50;99.90
41060;DHT22;26811;53.160;8.202;2023-07-20T16:15:57;17.20;99.90
41060;DHT22;26811;53.160;8.202;2023-07-20T16:20:59;17.10;99.90
41060;DHT22;26811;53.160;8.202;2023-07-20T16:26:00;17.00;99.90
41060;DHT22;26811;53.160;8.202;2023-07-20T16:31:08;17.00;99.90
41060;DHT22;26811;53.160;8.202;2023-07-20T16:36:13;17.20;99.90
41060;DHT22;26811;53.160;8.202;2023-07-20T16:41:14;17.40;99.90
41060;DHT22;26811;53.160;8.202;2023-07-20T16:46:15;17.40;99.90
41060;DHT22;26811;53.160;8.202;2023-07-20T16:51:15;17.50;99.90
41060;DHT22;26811;53.160;8.202;2023-07-20T16:56:16;17.60;99.90
41060;DHT22;26811;53.160;8.202;2023-07-20T17:01:16;17.70;99.90
41060;DHT22;26811;53.160;8.202;2023-07-20T17:06:17;17.80;99.90
41060;DHT22;26811;53.160;8.202;2023-07-20T17:11:17;17.90;99.90
41060;DHT22;26811;53.160;8.202;2023-07-20T17:16:18;17.90;99.90
41060;DHT22;26811;53.160;8.202;2023-07-20T17:21:20;17.90;99.90
41060;DHT22;26811;53.160;8.202;2023-07-20T17:26:20;18.10;99.90
41060;DHT22;26811;53.160;8.202;2023-07-20T17:31:21;18.20;99.90
41060;DHT22;26811;53.160;8.202;2023-07-20T17:36:26;18.40;99.90
41060;DHT22;26811;53.160;8.202;2023-07-20T17:41:26;18.60;99.90
41060;DHT22;26811;53.160;8.202;2023-07-20T17:46:27;18.50;99.90
41060;DHT22;26811;53.160;8.202;2023-07-20T17:51:27;18.50;99.90
41060;DHT22;26811;53.160;8.202;2023-07-20T17:56:28;18.30;99.90
41060;DHT22;26811;53.160;8.202;2023-07-20T18:01:28;18.10;99.90
41060;DHT22;26811;53.160;8.202;2023-07-20T18:06:29;17.70;99.90
41060;DHT22;26811;53.160;8.202;2023-07-20T18:11:29;17.50;99.90
41060;DHT22;26811;53.160;8.202;2023-07-20T18:16:30;17.40;99.90
41060;DHT22;26811;53.160;8.202;2023-07-20T18:21:32;17.20;99.90
41060;DHT22;26811;53.160;8.202;2023-07-20T18:26:33;17.10;99.90
41060;DHT22;26811;53.160;8.202;2023-07-20T18:31:34;17.00;99.90
41060;DHT22;26811;53.160;8.202;2023-07-20T18:36:34;16.80;99.90
41060;DHT22;26811;53.160;8.202;2023-07-20T18:41:34;16.70;99.90
41060;DHT22;26811;53.160;8.202;2023-07-20T18:46:35;16.80;99.90
41060;DHT22;26811;53.160;8.202;2023-07-20T18:51:36;16.80;99.90
41060;DHT22;26811;53.160;8.202;2023-07-20T18:56:36;16.90;99.90
41060;DHT22;26811;53.160;8.202;2023-07-20T19:01:37;17.00;99.90
41060;DHT22;26811;53.160;8.202;2023-07-20T19:06:37;17.00;99.90
41060;DHT22;26811;53.160;8.202;2023-07-20T19:11:38;16.90;99.90
41060;DHT22;26811;53.160;8.202;2023-07-20T19:16:39;16.80;99.90
41060;DHT22;26811;53.160;8.202;2023-07-20T19:21:39;16.70;99.90
41060;DHT22;26811;53.160;8.202;2023-07-20T19:26:40;16.50;99.90
41060;DHT22;26811;53.160;8.202;2023-07-20T19:31:41;16.50;99.90
41060;DHT22;26811;53.160;8.202;2023-07-20T19:36:41;16.50;99.90
41060;DHT22;26811;53.160;8.202;2023-07-20T19:41:42;16.50;99.90
41060;DHT22;26811;53.160;8.202;2023-07-20T19:46:42;16.50;99.90
41060;DHT22;26811;53.160;8.202;2023-07-20T19:51:43;16.50;99.90
41060;DHT22;26811;53.160;8.202;2023-07-20T19:56:43;16.50;99.90
41060;DHT22;26811;53.160;8.202;2023-07-20T20:01:44;16.40;99.90
41060;DHT22;26811;53.160;8.202;2023-07-20T20:06:44;16.50;99.90
41060;DHT22;26811;53.160;8.202;2023-07-20T20:11:45;16.50;99.90
41060;DHT22;26811;53.160;8.202;2023-07-20T20:16:46;16.50;99.90
41060;DHT22;26811;53.160;8.202;2023-07-20T20:21:47;16.50;99.90
41060;DHT22;26811;53.160;8.202;2023-07-20T20:26:47;16.50;99.90
41060;DHT22;26811;53.160;8.202;2023-07-20T20:31:48;16.50;99.90
41060;DHT22;26811;53.160;8.202;2023-07-20T20:36:48;16.50;99.90
41060;DHT22;26811;53.160;8.202;2023-07-20T20:41:49;16.50;99.90
41060;DHT22;26811;53.160;8.202;2023-07-20T20:46:50;16.50;99.90
41060;DHT22;26811;53.160;8.202;2023-07-20T20:51:50;16.50;99.90
41060;DHT22;26811;53.160;8.202;2023-07-20T20:56:51;16.40;99.90
41060;DHT22;26811;53.160;8.202;2023-07-20T21:01:52;16.40;99.90
41060;DHT22;26811;53.160;8.202;2023-07-20T21:06:52;16.30;99.90
41060;DHT22;26811;53.160;8.202;2023-07-20T21:11:53;16.20;99.90
41060;DHT22;26811;53.160;8.202;2023-07-20T21:16:53;16.10;99.90
41060;DHT22;26811;53.160;8.202;2023-07-20T21:21:54;16.00;99.90
41060;DHT22;26811;53.160;8.202;2023-07-20T21:26:54;15.90;99.90
41060;DHT22;26811;53.160;8.202;2023-07-20T21:31:55;15.80;99.90
41060;DHT22;26811;53.160;8.202;2023-07-20T21:36:55;15.70;99.90
41060;DHT22;26811;53.160;8.202;2023-07-20T21:41:56;15.60;99.90
41060;DHT22;26811;53.160;8.202;2023-07-20T21:46:56;15.60;99.90
41060;DHT22;26811;53.160;8.202;2023-07-20T21:51:57;15.50;99.90
41060;DHT22;26811;53.160;8.202;2023-07-20T21:56:58;15.50;99.90
41060;DHT22;26811;53.160;8.202;2023-07-20T22:01:58;15.50;99.90
41060;DHT22;26811;53.160;8.202;2023-07-20T22:06:59;15.40;99.90
41060;DHT22;26811;53.160;8.202;2023-07-20T22:11:59;15.30;99.90
41060;DHT22;26811;53.160;8.202;2023-07-20T22:17:00;15.30;99.90
41060;DHT22;26811;53.160;8.202;2023-07-20T22:22:01;15.20;99.90
41060;DHT22;26811;53.160;8.202;2023-07-20T22:27:03;15.20;99.90
41060;DHT22;26811;53.160;8.202;2023-07-20T22:32:04;15.20;99.90
41060;DHT22;26811;53.160;8.202;2023-07-20T22:37:05;15.10;99.90
41060;DHT22;26811;53.160;8.202;2023-07-20T22:42:06;15.10;99.90
41060;DHT22;26811;53.160;8.202;2023-07-20T22:47:07;15.10;99.90
41060;DHT22;26811;53.160;8.202;2023-07-20T22:52:07;15.00;99.90
41060;DHT22;26811;53.160;8.202;2023-07-20T22:57:08;15.00;99.90
41060;DHT22;26811;53.160;8.202;2023-07-20T23:02:09;14.90;99.90
41060;DHT22;26811;53.160;8.202;2023-07-20T23:07:10;14.90;99.90
41060;DHT22;26811;53.160;8.202;2023-07-20T23:12:10;14.80;99.90
41060;DHT22;26811;53.160;8.202;2023-07-20T23:17:11;14.80;99.90
41060;DHT22;26811;53.160;8.202;2023-07-20T23:22:12;14.70;99.90
41060;DHT22;26811;53.160;8.202;2023-07-20T23:27:13;14.60;99.90
41060;DHT22;26811;53.160;8.202;2023-07-20T23:32:13;14.60;99.90
41060;DHT22;26811;53.160;8.202;2023-07-20T23:37:15;14.50;99.90
41060;DHT22;26811;53.160;8.202;2023-07-20T23:42:16;14.50;99.90
41060;DHT22;26811;53.160;8.202;2023-07-20T23:47:17;14.40;99.90
41060;DHT22;26811;53.160;8.202;2023-07-20T23:52:17;14.40;99.90
41060;DHT22;26811;53.160;8.202;2023-07-20T23:57:19;14.30;99.90
